Data for 03/06/2017

Time Sea-Level Adjusted Pressure Absolute Pressure Temperature Relative Humidity Dew Point   
(mb) (inHg) (mb) (inHg) (C) (F) (%) (C) (F)
00:05 1001 29.56 830 24.51 -3 26.7 91 -4.2 24.5
00:10 1001 29.56 830 24.51 -2.9 26.7 92 -4.1 24.5
00:15 1001 29.56 830 24.51 -3 26.7 91 -4.2 24.5
00:20 1001 29.56 830 24.51 -3 26.6 91 -4.2 24.4
00:25 1001 29.56 830 24.51 -3 26.6 91 -4.2 24.4
00:30 1001 29.56 830 24.51 -3 26.6 91 -4.2 24.4
00:35 1001 29.56 830 24.51 -3.1 26.5 91 -4.3 24.3
00:40 1001 29.56 830 24.51 -3.1 26.4 91 -4.4 24.2
00:45 1001 29.56 830 24.51 -3.3 26.1 91 -4.6 23.8
00:50 1001 29.56 831 24.54 -3.5 25.7 91 -4.7 23.5
00:55 1001 29.56 830 24.51 -3.5 25.7 91 -4.7 23.5
01:00 1001 29.56 831 24.54 -3.5 25.6 92 -4.7 23.5
01:05 1002 29.59 831 24.54 -3.4 25.8 92 -4.6 23.7
01:10 1002 29.59 831 24.54 -3.3 26 92 -4.5 24
01:15 1002 29.59 831 24.54 -3.3 26.1 92 -4.4 24.1
01:20 1002 29.59 831 24.54 -3.3 26.1 91 -4.5 23.9
01:25 1002 29.59 831 24.54 -3.4 26 92 -4.5 23.8
01:30 1001 29.56 831 24.54 -3.4 25.8 92 -4.6 23.7
01:35 1002 29.59 831 24.54 -3.4 25.9 92 -4.6 23.8
01:40 1002 29.59 831 24.54 -3.3 26 91 -4.6 23.8
01:45 1002 29.59 831 24.54 -3.3 26 91 -4.6 23.7
01:50 1002 29.59 831 24.54 -3.3 26 91 -4.6 23.7
01:55 1002 29.59 831 24.54 -3.4 25.9 91 -4.6 23.7
02:00 1002 29.59 831 24.54 -3.3 26 91 -4.7 23.6
02:05 1002 29.59 831 24.54 -3.3 26 90 -4.7 23.6
02:10 1002 29.59 831 24.54 -3.3 26 91 -4.6 23.7
02:15 1002 29.59 831 24.54 -3.3 26 91 -4.6 23.7
02:20 1002 29.59 831 24.54 -3.3 26.1 91 -4.6 23.8
02:25 1002 29.59 831 24.54 -3.2 26.2 91 -4.5 24
02:30 1002 29.59 831 24.54 -3.2 26.2 91 -4.4 24
02:35 1002 29.59 831 24.54 -3.2 26.2 91 -4.5 23.9
02:40 1002 29.59 831 24.54 -3.4 26 91 -4.7 23.6
02:45 1002 29.59 831 24.54 -3.5 25.8 90 -4.8 23.4
02:50 1002 29.59 831 24.54 -3.5 25.6 90 -5 23
02:55 1002 29.59 831 24.54 -3.6 25.6 90 -5 22.9
03:00 1002 29.59 831 24.54 -3.7 25.4 90 -5.2 22.7
03:05 1002 29.59 831 24.54 -3.6 25.5 90 -5.1 22.9
03:10 1002 29.59 832 24.57 -3.7 25.4 90 -5 23
03:15 1002 29.59 832 24.57 -3.7 25.4 90 -5 23
03:20 1002 29.59 832 24.57 -3.7 25.4 90 -5.1 22.8
03:25 1003 29.62 832 24.57 -3.8 25.2 88 -5.4 22.2
03:30 1003 29.62 832 24.57 -3.8 25.2 89 -5.4 22.3
03:35 1003 29.62 832 24.57 -3.8 25.1 86 -5.8 21.5
03:40 1003 29.62 832 24.57 -3.9 25 88 -5.6 22
03:45 1003 29.62 832 24.57 -4 24.8 90 -5.5 22.1
03:50 1003 29.62 832 24.57 -4.1 24.7 90 -5.5 22.1
03:55 1003 29.62 832 24.57 -4.1 24.6 89 -5.6 21.9
04:00 1003 29.62 833 24.6 -4.2 24.5 88 -5.8 21.6
04:05 1003 29.62 833 24.6 -4.1 24.5 87 -6 21.3
04:10 1004 29.65 833 24.6 -4.1 24.5 85 -6.4 20.5
04:15 1004 29.65 833 24.6 -4.1 24.5 85 -6.4 20.6
04:20 1004 29.65 833 24.6 -4.2 24.5 84 -6.5 20.2
04:25 1004 29.65 833 24.6 -4.2 24.4 81 -7 19.4
04:30 1004 29.65 833 24.6 -4.3 24.3 77 -7.7 18.1
04:35 1004 29.65 833 24.6 -4.4 24.1 75 -8.1 17.3
04:40 1004 29.65 833 24.6 -4.4 24 74 -8.4 16.9
04:45 1004 29.65 833 24.6 -4.4 24 73 -8.6 16.5
04:50 1004 29.65 833 24.6 -4.4 24 73 -8.6 16.6
04:55 1004 29.65 834 24.63 -4.5 24 71 -8.9 15.9
05:00 1005 29.68 834 24.63 -4.4 24.1 70 -9.1 15.7
05:05 1005 29.68 834 24.63 -4.4 24 70 -9.1 15.6
05:10 1005 29.68 834 24.63 -4.5 23.9 68 -9.5 14.9
05:15 1005 29.68 834 24.63 -4.4 24 69 -9.3 15.2
05:20 1005 29.68 834 24.63 -4.5 23.9 69 -9.3 15.3
05:25 1005 29.68 834 24.63 -4.7 23.6 71 -9.2 15.5
05:30 1005 29.68 834 24.63 -4.7 23.6 71 -9.1 15.6
05:35 1005 29.68 834 24.63 -4.7 23.5 70 -9.3 15.2
05:40 1005 29.68 834 24.63 -4.7 23.6 70 -9.3 15.2
05:45 1005 29.68 834 24.63 -4.6 23.6 69 -9.5 14.9
05:50 1005 29.68 834 24.63 -4.7 23.5 70 -9.4 15
05:55 1005 29.68 834 24.63 -4.8 23.4 68 -9.7 14.5
06:00 1005 29.68 834 24.63 -4.8 23.4 66 -10.1 13.8
06:05 1005 29.68 834 24.63 -4.8 23.4 68 -9.9 14.2
06:10 1005 29.68 834 24.63 -4.8 23.4 67 -10 14.1
06:15 1005 29.68 835 24.66 -4.8 23.4 66 -10.1 13.7
06:20 1005 29.68 835 24.66 -4.8 23.3 66 -10.2 13.6
06:25 1006 29.71 835 24.66 -4.8 23.3 67 -10.2 13.7
06:30 1006 29.71 835 24.66 -4.9 23.2 66 -10.3 13.5
06:35 1006 29.71 835 24.66 -4.9 23.1 66 -10.4 13.3
06:40 1006 29.71 835 24.66 -5.1 22.9 67 -10.2 13.6
06:45 1006 29.71 835 24.66 -5 22.9 67 -10.3 13.4
06:50 1006 29.71 835 24.66 -4.9 23.1 63 -10.8 12.5
06:55 1006 29.71 835 24.66 -4.9 23.2 63 -10.9 12.3
07:00 1006 29.71 835 24.66 -4.8 23.4 60 -11.3 11.6
07:05 1006 29.71 835 24.66 -4.6 23.7 60 -11.2 11.8
07:10 1006 29.71 835 24.66 -4.6 23.8 57 -11.8 10.7
07:15 1006 29.71 835 24.66 -4.5 23.9 53 -12.6 9.3
07:20 1006 29.71 835 24.66 -4.4 24 55 -12.2 10
07:25 1006 29.71 835 24.66 -4.4 24.1 55 -12.1 10.2
07:30 1006 29.71 835 24.66 -4.3 24.2 56 -11.9 10.5
07:35 1006 29.71 836 24.69 -4.3 24.2 58 -11.3 11.6
07:40 1006 29.71 836 24.69 -4.3 24.2 60 -10.9 12.3
07:45 1007 29.74 836 24.69 -4.3 24.2 61 -10.7 12.7
07:50 1007 29.74 836 24.69 -4.3 24.2 60 -10.9 12.4
07:55 1007 29.74 836 24.69 -4.3 24.2 60 -11 12.3
08:00 1007 29.74 836 24.69 -4.2 24.4 60 -10.8 12.5
08:05 1007 29.74 836 24.69 -4.2 24.4 59 -11.1 12
08:10 1007 29.74 836 24.69 -4.3 24.2 58 -11.4 11.5
08:15 1007 29.74 836 24.69 -4.4 24.1 60 -11.1 12
08:20 1007 29.74 836 24.69 -4.5 24 58 -11.5 11.3
08:25 1007 29.74 836 24.69 -4.5 24 59 -11.2 11.8
08:30 1007 29.74 836 24.69 -4.6 23.8 60 -11.3 11.7
08:35 1007 29.74 836 24.69 -4.7 23.6 60 -11.3 11.7
08:40 1007 29.74 836 24.69 -4.7 23.6 62 -10.9 12.3
08:45 1007 29.74 836 24.69 -4.2 24.5 57 -11.5 11.2
08:50 1007 29.74 836 24.69 -3.9 24.9 57 -11.3 11.6
08:55 1007 29.74 836 24.69 -3.7 25.3 56 -11.3 11.6
09:00 1007 29.74 836 24.69 -3.4 25.9 55 -11.3 11.7
09:05 1007 29.74 837 24.72 -3.5 25.8 54 -11.5 11.4
09:10 1007 29.74 837 24.72 -3.6 25.6 54 -11.6 11.1
09:15 1008 29.77 837 24.72 -3.7 25.4 54 -11.7 10.9
09:20 1008 29.77 837 24.72 -3.2 26.2 54 -11.3 11.6
09:25 1008 29.77 837 24.72 -3 26.6 52 -11.5 11.3
09:30 1008 29.77 837 24.72 -3.3 26.1 53 -11.5 11.3
09:35 1008 29.77 837 24.72 -3.2 26.3 52 -11.7 10.9
09:40 1008 29.77 837 24.72 -2.9 26.9 51 -11.6 11
09:45 1008 29.77 837 24.72 -2.6 27.2 52 -11.2 11.9
09:50 1008 29.77 837 24.72 -2.4 27.6 51 -11.2 11.9
09:55 1008 29.77 837 24.72 -2.1 28.2 52 -10.7 12.7
10:00 1008 29.77 837 24.72 -2.1 28.2 49 -11.5 11.3
10:05 1008 29.77 837 24.72 -2.1 28.1 49 -11.5 11.3
10:10 1008 29.77 837 24.72 -2.1 28.2 49 -11.5 11.4
10:15 1008 29.77 837 24.72 -2 28.4 49 -11.3 11.6
10:20 1008 29.77 837 24.72 -1.8 28.8 47 -11.7 11
10:25 1008 29.77 837 24.72 -1.6 29.1 47 -11.6 11.2
10:30 1008 29.77 837 24.72 -1.6 29.1 46 -11.8 10.7
10:35 1008 29.77 837 24.72 -1.8 28.7 46 -12 10.4
10:40 1008 29.77 837 24.72 -1.8 28.7 47 -11.7 10.9
10:45 1008 29.77 837 24.72 -1.5 29.3 45 -12 10.5
10:50 1008 29.77 837 24.72 -1.5 29.3 47 -11.5 11.3
10:55 1008 29.77 837 24.72 -1.7 28.9 47 -11.5 11.3
11:00 1008 29.77 837 24.72 -1.3 29.7 45 -11.7 11
11:05 1008 29.77 838 24.75 -0.3 31.5 45 -10.8 12.6
11:10 1008 29.77 838 24.75 0.5 32.9 42 -11 12.2
11:15 1008 29.77 838 24.75 0.1 32.1 44 -10.9 12.4
11:20 1008 29.77 838 24.75 -0.7 30.8 45 -11.1 12
11:25 1008 29.77 838 24.75 -0.7 30.8 45 -11.3 11.7
11:30 1009 29.8 838 24.75 -0.5 31.1 44 -11.3 11.7
11:35 1009 29.8 838 24.75 0.2 32.3 45 -10.5 13.1
11:40 1009 29.8 838 24.75 0.1 32.1 45 -10.5 13
11:45 1009 29.8 838 24.75 -0.2 31.6 46 -10.6 12.9
11:50 1009 29.8 838 24.75 -0.2 31.6 43 -11.3 11.6
11:55 1009 29.8 838 24.75 0.4 32.7 43 -10.8 12.6
12:00 1009 29.8 838 24.75 0.4 32.7 41 -11.4 11.6
12:05 1009 29.8 838 24.75 0.2 32.3 42 -11.3 11.7
12:10 1009 29.8 838 24.75 0 32.1 41 -11.8 10.7
12:15 1009 29.8 838 24.75 -0 32 40 -12.1 10.3
12:20 1009 29.8 838 24.75 0.2 32.3 43 -11 12.3
12:25 1009 29.8 838 24.75 0.3 32.6 41 -11.6 11.2
12:30 1009 29.8 838 24.75 -0 32 40 -12 10.3
12:35 1009 29.8 838 24.75 0 32 40 -12.1 10.2
12:40 1009 29.8 838 24.75 0.3 32.6 40 -11.7 10.9
12:45 1009 29.8 838 24.75 0.3 32.6 37 -12.7 9.2
12:50 1009 29.8 838 24.75 0.8 33.4 39 -11.7 11
12:55 1009 29.8 838 24.75 0.5 33 39 -11.8 10.7
13:00 1009 29.8 838 24.75 1.2 34.1 36 -12.4 9.7
13:05 1009 29.8 838 24.75 1.3 34.3 35 -12.7 9.1
13:10 1009 29.8 838 24.75 1.3 34.4 33 -13.5 7.8
13:15 1009 29.8 838 24.75 -0.1 31.8 37 -13.3 8.1
13:20 1009 29.8 838 24.75 -0.3 31.5 36 -13.7 7.3
13:25 1009 29.8 838 24.75 0 32.1 36 -13.3 8.1
13:30 1009 29.8 838 24.75 -0.2 31.6 43 -11.2 11.8
13:35 1009 29.8 838 24.75 -0.8 30.6 50 -10 14
13:40 1009 29.8 838 24.75 -1.9 28.5 50 -11 12.2
13:45 1009 29.8 838 24.75 -2.5 27.6 53 -10.8 12.6
13:50 1009 29.8 838 24.75 -2.3 27.9 53 -10.7 12.8
13:55 1009 29.8 838 24.75 -2.3 27.9 52 -10.8 12.5
14:00 1009 29.8 838 24.75 -1.7 28.9 54 -9.8 14.3
14:05 1009 29.8 838 24.75 -2.3 27.8 57 -9.7 14.6
14:10 1009 29.8 838 24.75 -2.4 27.8 55 -10.3 13.5
14:15 1009 29.8 838 24.75 -2.1 28.2 50 -11.3 11.7
14:20 1009 29.8 838 24.75 -1.9 28.5 48 -11.6 11.1
14:25 1009 29.8 838 24.75 -1.5 29.3 44 -12.3 9.9
14:30 1009 29.8 838 24.75 -0.7 30.8 41 -12.4 9.7
14:35 1009 29.8 838 24.75 -1.1 30 40 -13 8.6
14:40 1009 29.8 838 24.75 -1.4 29.4 38 -14 6.8
14:45 1009 29.8 838 24.75 -1.5 29.2 42 -12.8 8.9
14:50 1009 29.8 838 24.75 -1.6 29.2 42 -12.8 8.9
14:55 1009 29.8 838 24.75 -1.1 30.1 40 -13.1 8.4
15:00 1009 29.8 838 24.75 -0.8 30.5 39 -13.2 8.3
15:05 1009 29.8 838 24.75 -1.1 30 39 -13.5 7.7
15:10 1009 29.8 838 24.75 -1.2 29.8 39 -13.4 7.8
15:15 1009 29.8 838 24.75 -0.7 30.7 39 -13.1 8.5
15:20 1009 29.8 838 24.75 -0.4 31.3 36 -13.8 7.1
15:25 1009 29.8 838 24.75 -0.8 30.6 36 -14.2 6.5
15:30 1009 29.8 838 24.75 -0.7 30.8 37 -13.7 7.3
15:35 1009 29.8 838 24.75 -0.6 31 39 -12.9 8.8
15:40 1009 29.8 838 24.75 -0.9 30.4 38 -13.5 7.6
15:45 1009 29.8 838 24.75 -0.9 30.4 38 -13.6 7.4
15:50 1009 29.8 838 24.75 -1.1 30.1 38 -13.5 7.7
15:55 1009 29.8 838 24.75 -1.3 29.7 41 -13 8.6
16:00 1009 29.8 838 24.75 -1.6 29.2 41 -13.1 8.4
16:05 1009 29.8 838 24.75 -1.8 28.8 41 -13.4 7.9
16:10 1009 29.8 838 24.75 -1.8 28.7 42 -13 8.6
16:15 1009 29.8 838 24.75 -2.1 28.3 43 -13.1 8.5
16:20 1009 29.8 838 24.75 -2.1 28.3 40 -13.9 7
16:25 1009 29.8 838 24.75 -2.1 28.3 41 -13.6 7.5
16:30 1009 29.8 838 24.75 -2 28.4 40 -13.8 7.1
16:35 1009 29.8 838 24.75 -2.1 28.2 42 -13.4 8
16:40 1009 29.8 838 24.75 -2 28.3 41 -13.7 7.3
16:45 1009 29.8 838 24.75 -2 28.4 40 -14 6.7
16:50 1009 29.8 838 24.75 -2.1 28.2 41 -13.7 7.3
16:55 1009 29.8 838 24.75 -2.1 28.2 42 -13.4 7.8
17:00 1009 29.8 838 24.75 -2.1 28.1 44 -12.9 8.8
17:05 1009 29.8 838 24.75 -2.3 27.8 46 -12.5 9.5
17:10 1009 29.8 838 24.75 -2.4 27.6 46 -12.5 9.5
17:15 1009 29.8 838 24.75 -2.6 27.4 48 -12.2 10
17:20 1009 29.8 838 24.75 -2.5 27.5 40 -14.2 6.4
17:25 1009 29.8 838 24.75 -2.2 28 40 -14 6.8
17:30 1009 29.8 838 24.75 -2.1 28.3 38 -14.5 5.9
17:35 1009 29.8 838 24.75 -2 28.5 39 -14.2 6.5
17:40 1009 29.8 839 24.78 -1.9 28.6 43 -13 8.7
17:45 1009 29.8 839 24.78 -2.1 28.3 40 -14.1 6.7
17:50 1009 29.8 839 24.78 -1.9 28.5 34 -15.8 3.5
17:55 1009 29.8 839 24.78 -2 28.3 41 -13.5 7.6
18:00 1010 29.83 839 24.78 -2.5 27.6 41 -14.1 6.7
18:05 1010 29.83 839 24.78 -2.4 27.8 38 -14.9 5.2
18:10 1010 29.83 839 24.78 -2.2 28 37 -15.2 4.7
18:15 1010 29.83 839 24.78 -2.2 28.1 37 -15 5
18:20 1010 29.83 839 24.78 -2.2 28.1 40 -14.1 6.7
18:25 1010 29.83 839 24.78 -2.3 27.9 41 -13.9 6.9
18:30 1010 29.83 839 24.78 -2.4 27.7 41 -13.9 7
18:35 1010 29.83 839 24.78 -2.6 27.3 44 -13.2 8.3
18:40 1010 29.83 839 24.78 -2.9 26.7 46 -13 8.6
18:45 1010 29.83 839 24.78 -3.1 26.4 47 -13 8.7
18:50 1010 29.83 839 24.78 -3.2 26.2 46 -13.2 8.3
18:55 1010 29.83 839 24.78 -3.3 26.1 47 -13.1 8.4
19:00 1010 29.83 839 24.78 -3.4 25.8 48 -13.1 8.5
19:05 1010 29.83 839 24.78 -3.5 25.6 47 -13.2 8.3
19:10 1010 29.83 839 24.78 -3.6 25.5 48 -13.2 8.2
19:15 1010 29.83 839 24.78 -3.8 25.2 48 -13.2 8.2
19:20 1010 29.83 839 24.78 -3.9 24.9 47 -13.6 7.5
19:25 1010 29.83 839 24.78 -4 24.8 46 -13.9 6.9
19:30 1010 29.83 839 24.78 -4 24.8 46 -13.9 7
19:35 1010 29.83 839 24.78 -4 24.8 45 -14.3 6.3
19:40 1010 29.83 839 24.78 -4 24.8 44 -14.5 5.9
19:45 1010 29.83 839 24.78 -4.1 24.6 45 -14.3 6.3
19:50 1010 29.83 839 24.78 -4.3 24.3 45 -14.4 6
19:55 1010 29.83 839 24.78 -4.3 24.2 45 -14.7 5.5
20:00 1010 29.83 839 24.78 -4.3 24.3 44 -14.9 5.2
20:05 1010 29.83 839 24.78 -4.3 24.2 44 -14.9 5.2
20:10 1010 29.83 839 24.78 -4.4 24 45 -14.8 5.4
20:15 1010 29.83 839 24.78 -4.5 24 45 -14.6 5.7
20:20 1010 29.83 839 24.78 -4.4 24.1 45 -14.8 5.4
20:25 1010 29.83 839 24.78 -4.3 24.3 45 -14.6 5.7
20:30 1010 29.83 839 24.78 -4.1 24.6 43 -15 5
20:35 1010 29.83 839 24.78 -3.9 24.9 43 -14.9 5.3
20:40 1010 29.83 839 24.78 -3.9 24.9 43 -14.7 5.5
20:45 1010 29.83 839 24.78 -4 24.9 43 -14.8 5.3
20:50 1010 29.83 839 24.78 -4.1 24.7 43 -14.9 5.2
20:55 1010 29.83 839 24.78 -4.1 24.6 42 -15.1 4.8
21:00 1010 29.83 839 24.78 -4.1 24.5 43 -15 5
21:05 1010 29.83 839 24.78 -4.2 24.5 42 -15.3 4.5
21:10 1010 29.83 839 24.78 -4.1 24.7 42 -15.3 4.5
21:15 1010 29.83 839 24.78 -4.2 24.5 41 -15.5 4
21:20 1010 29.83 839 24.78 -4.4 24.1 41 -15.8 3.6
21:25 1010 29.83 839 24.78 -4.4 24 40 -16.1 3
21:30 1010 29.83 839 24.78 -4.4 24.1 38 -16.6 2.1
21:35 1010 29.83 839 24.78 -4.1 24.6 36 -17.1 1.3
21:40 1010 29.83 839 24.78 -4 24.8 37 -16.6 2.1
21:45 1010 29.83 839 24.78 -4.1 24.7 37 -16.7 1.9
21:50 1010 29.83 839 24.78 -4 24.8 36 -17 1.4
21:55 1010 29.83 839 24.78 -3.9 25 35 -17.2 1.1
22:00 1010 29.83 839 24.78 -3.9 25 35 -17.2 1
22:05 1010 29.83 839 24.78 -3.8 25.1 34 -17.7 0.2
22:10 1010 29.83 839 24.78 -3.7 25.4 33 -17.8 -0
22:15 1010 29.83 839 24.78 -3.6 25.5 35 -17 1.4
22:20 1010 29.83 839 24.78 -3.8 25.2 36 -16.8 1.7
22:25 1010 29.83 839 24.78 -4 24.8 36 -17.1 1.2
22:30 1010 29.83 839 24.78 -4 24.8 34 -17.8 0
22:35 1010 29.83 839 24.78 -3.6 25.5 31 -18.3 -0.9
22:40 1009 29.8 839 24.78 -3.2 26.3 31 -18.1 -0.6
22:45 1009 29.8 839 24.78 -3 26.6 32 -17.4 0.7
22:50 1009 29.8 839 24.78 -3.2 26.3 32 -17.8 0
22:55 1009 29.8 839 24.78 -3.1 26.4 33 -17.3 0.8
23:00 1009 29.8 839 24.78 -3.2 26.3 35 -16.8 1.8
23:05 1009 29.8 839 24.78 -3.3 26 37 -16.1 3.1
23:10 1009 29.8 839 24.78 -3.4 25.9 37 -16 3.2
23:15 1009 29.8 839 24.78 -3.4 25.9 38 -15.7 3.7
23:20 1009 29.8 839 24.78 -3.5 25.7 40 -15.2 4.6
23:25 1009 29.8 839 24.78 -3.6 25.6 38 -16 3.2
23:30 1009 29.8 839 24.78 -3.5 25.7 39 -15.5 4.1
23:35 1010 29.83 839 24.78 -3.5 25.7 41 -15 5
23:40 1010 29.83 839 24.78 -3.6 25.6 44 -14.2 6.4
23:45 1010 29.83 839 24.78 -3.6 25.4 46 -13.7 7.3
23:50 1010 29.83 839 24.78 -3.7 25.3 48 -13.3 8
23:55 1010 29.83 839 24.78 -3.8 25.2 47 -13.4 7.9
24:00 1010 29.83 839 24.78 -3.8 25.1 48 -13.3 8